Time;durP1;ratioP1;P1;durP2;ratioP2;P2;SDS_P1;SDS_P2;PMS_P1;PMS_P2;Temp;Humidity;BMP_temperature;BMP_pressure;BME280_temperature;BME280_humidity;BME280_pressure;Samples;Min_cycle;Max_cycle;Signal;HPM_P1;HPM_P2
2021/08/02 00:01:23;;;;;;;;;;;;;;;27.09;44.14;99840.38;1838103;77;20419;-60
2021/08/02 00:03:52;;;;;;;;;;;;;;;27.09;44.11;99845.16;1837793;77;20529;-59
2021/08/02 00:06:24;;;;;;;;;;;;;;;27.07;44.05;99839.98;1791198;78;22034;-60
2021/08/02 00:08:58;;;;;;;;;;;;;;;27.07;44.02;99844.77;1792821;79;20433;-59
2021/08/02 00:11:28;;;;;;;;;;;;;;;27.05;43.97;99846.53;1788114;78;20508;-60
2021/08/02 00:13:57;;;;;;;;;;;;;;;27.02;43.92;99838.93;1797706;78;20489;-59
2021/08/02 00:16:22;;;;;;;;;;;;;;;27.02;43.87;99838.12;1794823;78;20145;-59
2021/08/02 00:18:48;;;;;;;;;;;;;;;27.00;43.83;99841.29;1763042;80;21043;-59
2021/08/02 00:21:14;;;;;;;;;;;;;;;27.00;43.78;99845.48;1769523;79;20376;-59
2021/08/02 00:23:41;;;;;;;;;;;;;;;26.99;43.71;99837.51;1787742;79;20220;-59
2021/08/02 00:26:07;;;;;;;;;;;;;;;26.96;43.68;99835.46;1795193;78;20400;-59
2021/08/02 00:28:33;;;;;;;;;;;;;;;26.95;43.64;99836.05;1799749;78;20196;-59
2021/08/02 00:30:59;;;;;;;;;;;;;;;26.94;43.58;99834.47;1789866;78;21094;-59
2021/08/02 00:33:26;;;;;;;;;;;;;;;26.92;43.56;99835.43;1802829;78;20138;-60
2021/08/02 00:36:08;;;;;;;;;;;;;;;26.92;43.50;99840.20;1778746;78;20189;-59
2021/08/02 00:38:46;;;;;;;;;;;;;;;26.90;43.44;99829.45;1757114;79;20195;-60
2021/08/02 00:41:26;;;;;;;;;;;;;;;26.90;43.41;99830.84;1795777;78;20192;-59
2021/08/02 00:44:02;;;;;;;;;;;;;;;26.88;43.33;99828.20;1792391;78;21717;-59
2021/08/02 00:46:31;;;;;;;;;;;;;;;26.86;43.27;99829.20;1786910;78;20136;-59
2021/08/02 00:49:00;;;;;;;;;;;;;;;26.85;43.22;99829.78;1787232;78;20215;-59
2021/08/02 00:51:26;;;;;;;;;;;;;;;26.82;43.17;99831.31;1789984;78;20144;-59
2021/08/02 00:53:52;;;;;;;;;;;;;;;26.81;43.14;99826.94;1790109;78;20182;-59
2021/08/02 00:56:18;;;;;;;;;;;;;;;26.81;43.09;99831.71;1798135;78;21110;-60
2021/08/02 00:58:46;;;;;;;;;;;;;;;26.79;43.05;99827.89;1751048;80;20409;-59
2021/08/02 01:01:12;;;;;;;;;;;;;;;26.78;43.00;99828.27;1781721;78;20252;-60
2021/08/02 01:03:38;;;;;;;;;;;;;;;26.77;42.98;99828.89;1775712;78;20204;-60
2021/08/02 01:06:04;;;;;;;;;;;;;;;26.76;42.94;99826.47;1779686;78;20169;-59
2021/08/02 01:08:31;;;;;;;;;;;;;;;26.75;42.89;99814.50;1784595;78;20993;-60
2021/08/02 01:11:02;;;;;;;;;;;;;;;26.74;42.87;99818.47;1780470;78;20212;-60
2021/08/02 01:13:31;;;;;;;;;;;;;;;26.73;42.79;99817.48;1781587;78;20184;-59
2021/08/02 01:15:59;;;;;;;;;;;;;;;26.73;42.77;99823.06;1779978;78;20666;-60
2021/08/02 01:18:25;;;;;;;;;;;;;;;26.70;42.72;99820.42;1782997;78;20173;-59
2021/08/02 01:20:52;;;;;;;;;;;;;;;26.69;42.69;99815.25;1783927;78;23317;-60
2021/08/02 01:23:19;;;;;;;;;;;;;;;26.69;42.66;99808.27;1778409;79;20181;-59
2021/08/02 01:25:55;;;;;;;;;;;;;;;26.67;42.61;99810.63;1789655;78;20161;-58
2021/08/02 01:28:25;;;;;;;;;;;;;;;26.67;42.59;99813.41;1786931;78;20179;-60
2021/08/02 01:30:57;;;;;;;;;;;;;;;26.65;42.53;99822.78;1780626;78;20231;-60
2021/08/02 01:33:30;;;;;;;;;;;;;;;26.64;42.49;99819.18;1782254;78;21043;-60
2021/08/02 01:35:57;;;;;;;;;;;;;;;26.62;42.46;99815.15;1782897;78;20220;-59
2021/08/02 01:38:26;;;;;;;;;;;;;;;26.62;42.43;99820.73;1781080;78;20165;-60
2021/08/02 01:40:52;;;;;;;;;;;;;;;26.61;42.36;99807.37;1780522;78;20188;-59
2021/08/02 01:43:18;;;;;;;;;;;;;;;26.60;42.35;99807.77;1786683;78;20141;-60
2021/08/02 01:45:57;;;;;;;;;;;;;;;26.58;42.31;99802.56;1775190;79;21244;-60
2021/08/02 01:48:47;;;;;;;;;;;;;;;26.58;42.26;99805.94;1779753;78;20195;-60
2021/08/02 01:51:22;;;;;;;;;;;;;;;26.57;42.23;99814.90;1782691;78;20144;-60
2021/08/02 01:54:01;;;;;;;;;;;;;;;26.55;42.16;99815.89;1780821;79;20258;-60
2021/08/02 01:56:31;;;;;;;;;;;;;;;26.55;42.11;99815.08;1785855;78;20168;-59
2021/08/02 01:59:07;;;;;;;;;;;;;;;26.53;42.09;99818.24;1774006;78;21326;-59
2021/08/02 02:01:34;;;;;;;;;;;;;;;26.52;42.04;99814.45;1783302;78;20359;-60
2021/08/02 02:04:01;;;;;;;;;;;;;;;26.51;42.02;99814.24;1781645;78;20187;-59
2021/08/02 02:06:30;;;;;;;;;;;;;;;26.50;41.98;99809.84;1778653;78;20124;-59
2021/08/02 02:09:05;;;;;;;;;;;;;;;26.48;41.94;99807.42;1782473;78;20432;-59
2021/08/02 02:11:31;;;;;;;;;;;;;;;26.47;41.92;99814.20;1781731;78;21056;-58
2021/08/02 02:14:00;;;;;;;;;;;;;;;26.47;41.91;99818.39;1786291;78;20185;-58
2021/08/02 02:16:26;;;;;;;;;;;;;;;26.46;41.86;99815.38;1787617;78;20153;-59
2021/08/02 02:18:54;;;;;;;;;;;;;;;26.45;41.82;99815.16;1785206;79;20826;-58
2021/08/02 02:21:23;;;;;;;;;;;;;;;26.44;41.80;99817.73;1786198;78;20190;-58
2021/08/02 02:23:49;;;;;;;;;;;;;;;26.44;41.75;99828.11;1777484;78;21523;-58
2021/08/02 02:26:15;;;;;;;;;;;;;;;26.44;41.73;99824.70;1782490;78;20362;-58
2021/08/02 02:28:41;;;;;;;;;;;;;;;26.42;41.68;99827.09;1786530;78;20242;-59
2021/08/02 02:31:07;;;;;;;;;;;;;;;26.42;41.67;99830.47;1784298;79;20885;-59
2021/08/02 02:33:33;;;;;;;;;;;;;;;26.41;41.63;99834.43;1787945;78;21681;-58
2021/08/02 02:35:59;;;;;;;;;;;;;;;26.40;41.57;99835.61;1779870;79;21152;-58
2021/08/02 02:38:26;;;;;;;;;;;;;;;26.39;41.54;99834.83;1785085;79;20113;-58
2021/08/02 02:40:52;;;;;;;;;;;;;;;26.38;41.56;99826.83;1780363;78;20183;-59
2021/08/02 02:43:18;;;;;;;;;;;;;;;26.37;41.48;99827.42;1784304;78;20140;-58
2021/08/02 02:45:44;;;;;;;;;;;;;;;26.36;41.47;99828.01;1776438;79;20206;-59
2021/08/02 02:48:11;;;;;;;;;;;;;;;26.35;41.44;99837.55;1780130;79;22120;-59
2021/08/02 02:50:37;;;;;;;;;;;;;;;26.34;41.41;99849.11;1781777;78;20183;-58
2021/08/02 02:53:03;;;;;;;;;;;;;;;26.34;41.39;99845.73;1779562;78;20766;-58
2021/08/02 02:55:31;;;;;;;;;;;;;;;26.33;41.35;99834.36;1782997;78;20913;-59
2021/08/02 02:57:57;;;;;;;;;;;;;;;26.32;41.33;99834.14;1793000;78;20127;-59
2021/08/02 03:00:23;;;;;;;;;;;;;;;26.32;41.29;99834.73;1837613;76;21333;-59
2021/08/02 03:02:50;;;;;;;;;;;;;;;26.31;41.25;99847.86;1842151;77;20216;-59
2021/08/02 03:05:16;;;;;;;;;;;;;;;26.30;41.23;99850.46;1843764;77;20198;-59
2021/08/02 03:07:42;;;;;;;;;;;;;;;26.30;41.20;99845.47;1840799;77;20234;-59
2021/08/02 03:10:08;;;;;;;;;;;;;;;26.29;41.18;99843.86;1843151;77;20489;-59
2021/08/02 03:12:34;;;;;;;;;;;;;;;26.29;41.17;99840.48;1844285;76;21034;-59
2021/08/02 03:15:03;;;;;;;;;;;;;;;26.30;41.24;99854.64;1840063;77;20391;-58
2021/08/02 03:17:29;;;;;;;;;;;;;;;26.31;41.27;99872.16;1842045;77;20518;-59
2021/08/02 03:19:55;;;;;;;;;;;;;;;26.31;41.27;99871.56;1838903;76;20130;-59
2021/08/02 03:22:28;;;;;;;;;;;;;;;26.30;41.24;99867.78;1841834;76;20310;-59
2021/08/02 03:25:04;;;;;;;;;;;;;;;26.29;41.23;99871.16;1842031;76;21170;-59
2021/08/02 03:27:37;;;;;;;;;;;;;;;26.29;41.19;99880.91;1844200;76;20569;-59
2021/08/02 03:30:04;;;;;;;;;;;;;;;26.28;41.18;99883.48;1840370;76;20180;-59
2021/08/02 03:32:31;;;;;;;;;;;;;;;26.26;41.15;99882.27;1835362;77;20390;-59
2021/08/02 03:35:01;;;;;;;;;;;;;;;26.26;41.13;99878.09;1835604;77;20345;-59
2021/08/02 03:37:27;;;;;;;;;;;;;;;26.25;41.09;99882.86;1832913;77;20107;-59
2021/08/02 03:39:55;;;;;;;;;;;;;;;26.25;41.08;99889.02;1838645;77;20149;-59
2021/08/02 03:42:22;;;;;;;;;;;;;;;26.22;41.04;99885.02;1833355;77;20117;-59
2021/08/02 03:44:49;;;;;;;;;;;;;;;26.22;41.02;99889.78;1839385;77;20279;-59
2021/08/02 03:47:15;;;;;;;;;;;;;;;26.21;41.00;99893.74;1834384;77;20204;-59
2021/08/02 03:49:41;;;;;;;;;;;;;;;26.21;40.96;99900.13;1832480;77;21065;-59
2021/08/02 03:52:08;;;;;;;;;;;;;;;26.19;40.95;99905.23;1838388;77;20186;-59
2021/08/02 03:54:34;;;;;;;;;;;;;;;26.18;40.92;99898.66;1834727;77;20778;-59
2021/08/02 03:57:01;;;;;;;;;;;;;;;26.17;40.91;99902.03;1838766;76;20498;-59
2021/08/02 03:59:27;;;;;;;;;;;;;;;26.18;40.92;99901.45;1833891;76;20231;-58
2021/08/02 04:01:53;;;;;;;;;;;;;;;26.22;40.94;99898.95;1838920;76;21075;-59
2021/08/02 04:04:19;;;;;;;;;;;;;;;26.27;40.99;99890.23;1841224;76;20150;-58
2021/08/02 04:06:45;;;;;;;;;;;;;;;26.32;41.04;99880.73;1839661;76;20196;-59
2021/08/02 04:09:12;;;;;;;;;;;;;;;26.38;41.07;99877.84;1833387;76;20227;-59
2021/08/02 04:11:39;;;;;;;;;;;;;;;26.43;41.07;99879.50;1834231;76;20200;-59
2021/08/02 04:14:05;;;;;;;;;;;;;;;26.49;41.06;99880.75;1838212;76;21019;-59
2021/08/02 04:16:31;;;;;;;;;;;;;;;26.54;41.06;99873.45;1836818;76;20220;-59
2021/08/02 04:18:57;;;;;;;;;;;;;;;26.57;41.09;99873.48;1835869;76;20218;-59
2021/08/02 04:21:23;;;;;;;;;;;;;;;26.64;41.12;99879.75;1830921;76;20157;-59
2021/08/02 04:23:49;;;;;;;;;;;;;;;26.68;41.22;99881.99;1839077;76;20183;-59
2021/08/02 04:26:15;;;;;;;;;;;;;;;26.71;41.28;99879.83;1835899;76;21793;-60
2021/08/02 04:28:43;;;;;;;;;;;;;;;26.74;41.33;99882.66;1835225;77;20137;-59
2021/08/02 04:31:10;;;;;;;;;;;;;;;26.78;41.38;99878.50;1834722;76;20424;-60
2021/08/02 04:33:36;;;;;;;;;;;;;;;26.82;41.49;99880.73;1840212;76;20523;-60
2021/08/02 04:36:02;;;;;;;;;;;;;;;26.87;41.56;99881.02;1840423;76;20842;-60
2021/08/02 04:38:29;;;;;;;;;;;;;;;26.90;41.66;99877.48;1838495;76;21120;-58
2021/08/02 04:40:55;;;;;;;;;;;;;;;26.93;41.69;99871.94;1839558;76;20497;-59
2021/08/02 04:43:22;;;;;;;;;;;;;;;26.98;41.77;99875.78;1837505;76;20176;-58
2021/08/02 04:45:48;;;;;;;;;;;;;;;27.02;41.80;99871.63;1840800;76;20186;-59
2021/08/02 04:48:14;;;;;;;;;;;;;;;27.05;41.84;99863.87;1836794;76;20216;-59
2021/08/02 04:50:43;;;;;;;;;;;;;;;27.07;41.90;99860.92;1835130;76;20998;-59
2021/08/02 04:53:08;;;;;;;;;;;;;;;27.11;41.96;99863.74;1833530;76;20189;-58
2021/08/02 04:55:34;;;;;;;;;;;;;;;27.15;42.00;99870.97;1837639;77;20176;-58
2021/08/02 04:58:00;;;;;;;;;;;;;;;27.17;42.06;99883.94;1838085;76;20208;-59
2021/08/02 05:00:26;;;;;;;;;;;;;;;27.20;42.12;99881.77;1838174;76;20210;-58
2021/08/02 05:02:52;;;;;;;;;;;;;;;27.22;42.14;99883.59;1838213;76;21154;-58
2021/08/02 05:05:18;;;;;;;;;;;;;;;27.24;42.24;99885.39;1837586;76;20895;-58
2021/08/02 05:07:44;;;;;;;;;;;;;;;27.28;42.30;99890.41;1841485;76;20149;-57
2021/08/02 05:10:11;;;;;;;;;;;;;;;27.30;42.40;99882.25;1837321;76;20589;-58
2021/08/02 05:12:38;;;;;;;;;;;;;;;27.33;42.50;99880.88;1838379;76;20709;-58
2021/08/02 05:15:05;;;;;;;;;;;;;;;27.35;42.58;99882.71;1839508;76;21797;-58
2021/08/02 05:17:31;;;;;;;;;;;;;;;27.38;42.62;99892.30;1837332;76;20521;-58
2021/08/02 05:19:57;;;;;;;;;;;;;;;27.40;42.71;99894.93;1840004;76;20262;-58
2021/08/02 05:22:23;;;;;;;;;;;;;;;27.41;42.75;99899.34;1835691;76;20197;-58
2021/08/02 05:24:49;;;;;;;;;;;;;;;27.43;42.80;99895.55;1840480;76;20182;-58
2021/08/02 05:27:16;;;;;;;;;;;;;;;27.46;42.88;99892.56;1840655;77;21004;-58
2021/08/02 05:29:41;;;;;;;;;;;;;;;27.47;42.93;99895.02;1831575;77;20937;-58
2021/08/02 05:32:08;;;;;;;;;;;;;;;27.49;42.98;99893.23;1834445;76;20499;-58
2021/08/02 05:34:34;;;;;;;;;;;;;;;27.51;43.04;99894.45;1838878;76;20133;-58
2021/08/02 05:37:00;;;;;;;;;;;;;;;27.52;43.11;99897.45;1838727;77;20199;-58
2021/08/02 05:39:26;;;;;;;;;;;;;;;27.54;43.17;99892.89;1834634;76;21168;-58
2021/08/02 05:41:52;;;;;;;;;;;;;;;27.57;43.23;99896.30;1846376;75;20206;-58
2021/08/02 05:44:18;;;;;;;;;;;;;;;27.57;43.28;99887.33;1841711;76;20453;-57
2021/08/02 05:46:45;;;;;;;;;;;;;;;27.59;43.33;99888.31;1838167;76;20171;-58
2021/08/02 05:49:11;;;;;;;;;;;;;;;27.60;43.39;99887.13;1804593;77;20236;-58
2021/08/02 05:51:37;;;;;;;;;;;;;;;27.62;43.46;99886.16;1839155;76;20828;-59
2021/08/02 05:54:03;;;;;;;;;;;;;;;27.64;43.51;99889.36;1843619;76;20341;-58
2021/08/02 05:56:29;;;;;;;;;;;;;;;27.65;43.55;99890.97;1841309;76;20211;-58
2021/08/02 05:58:55;;;;;;;;;;;;;;;27.67;43.61;99894.16;1839596;76;20227;-57
2021/08/02 06:01:21;;;;;;;;;;;;;;;27.69;43.65;99904.38;1840820;76;20164;-58
2021/08/02 06:03:47;;;;;;;;;;;;;;;27.69;43.71;99909.37;1837613;76;21843;-59
2021/08/02 06:06:13;;;;;;;;;;;;;;;27.70;43.76;99905.98;1838723;76;20247;-58
2021/08/02 06:08:39;;;;;;;;;;;;;;;27.71;43.81;99902.78;1841330;76;20187;-58
2021/08/02 06:11:06;;;;;;;;;;;;;;;27.74;43.84;99904.02;1840527;76;20474;-57
2021/08/02 06:13:32;;;;;;;;;;;;;;;27.73;43.90;99899.61;1843513;76;20386;-58
2021/08/02 06:15:59;;;;;;;;;;;;;;;27.75;43.96;99897.84;1841838;76;21052;-58
2021/08/02 06:18:25;;;;;;;;;;;;;;;27.77;43.99;99903.83;1838454;76;20161;-58
2021/08/02 06:20:51;;;;;;;;;;;;;;;27.77;44.04;99906.03;1834934;76;20136;-58
2021/08/02 06:23:17;;;;;;;;;;;;;;;27.79;44.10;99911.25;1847211;76;20175;-58
2021/08/02 06:25:43;;;;;;;;;;;;;;;27.80;44.12;99911.43;1839768;76;20188;-58
2021/08/02 06:28:09;;;;;;;;;;;;;;;27.80;44.17;99915.03;1842610;76;21308;-58
2021/08/02 06:30:35;;;;;;;;;;;;;;;27.81;44.21;99908.26;1840849;76;20163;-58
2021/08/02 06:33:01;;;;;;;;;;;;;;;27.82;44.27;99907.08;1840803;76;20424;-58
2021/08/02 06:35:28;;;;;;;;;;;;;;;27.83;44.29;99901.70;1841994;76;20713;-57
2021/08/02 06:37:54;;;;;;;;;;;;;;;27.84;44.32;99907.47;1843419;76;20182;-58
2021/08/02 06:40:20;;;;;;;;;;;;;;;27.85;44.38;99904.89;1835353;76;23352;-58
2021/08/02 06:42:47;;;;;;;;;;;;;;;27.87;44.44;99903.92;1838468;76;20479;-58
2021/08/02 06:45:13;;;;;;;;;;;;;;;27.88;44.47;99904.73;1833129;76;20168;-58
2021/08/02 06:47:40;;;;;;;;;;;;;;;27.90;44.55;99904.53;1836306;76;20504;-58
2021/08/02 06:50:07;;;;;;;;;;;;;;;27.92;44.65;99903.53;1834103;76;20170;-58
2021/08/02 06:52:32;;;;;;;;;;;;;;;27.90;44.65;99904.53;1834275;76;20958;-57
2021/08/02 06:54:58;;;;;;;;;;;;;;;27.88;44.65;99904.73;1838285;77;20200;-57
2021/08/02 06:57:24;;;;;;;;;;;;;;;27.85;44.66;99908.28;1839036;76;20173;-57
2021/08/02 06:59:55;;;;;;;;;;;;;;;27.81;44.66;99911.64;1836656;76;20164;-57
2021/08/02 07:02:21;;;;;;;;;;;;;;;27.78;44.66;99913.23;1840069;76;20497;-57
2021/08/02 07:04:47;;;;;;;;;;;;;;;27.74;44.64;99911.01;1841328;76;21182;-58
2021/08/02 07:07:13;;;;;;;;;;;;;;;27.72;44.61;99916.17;1845793;76;20282;-57
2021/08/02 07:09:39;;;;;;;;;;;;;;;27.68;44.56;99911.15;1837177;76;20194;-57
2021/08/02 07:12:05;;;;;;;;;;;;;;;27.66;44.53;99912.95;1837888;76;20168;-57
2021/08/02 07:14:31;;;;;;;;;;;;;;;27.63;44.50;99915.10;1837053;76;20191;-58
2021/08/02 07:16:57;;;;;;;;;;;;;;;27.61;44.45;99912.50;1841957;76;21126;-58
2021/08/02 07:19:23;;;;;;;;;;;;;;;27.60;44.42;99912.28;1838569;76;20186;-58
2021/08/02 07:21:49;;;;;;;;;;;;;;;27.57;44.35;99908.87;1837469;76;20195;-58
2021/08/02 07:24:15;;;;;;;;;;;;;;;27.55;44.32;99909.25;1840297;76;22151;-58
2021/08/02 07:26:41;;;;;;;;;;;;;;;27.53;44.26;99913.04;1835014;76;20166;-58
2021/08/02 07:29:07;;;;;;;;;;;;;;;27.52;44.21;99914.81;1836649;76;21116;-58
2021/08/02 07:31:32;;;;;;;;;;;;;;;27.51;44.13;99911.80;1837540;76;20206;-58
2021/08/02 07:33:58;;;;;;;;;;;;;;;27.48;44.10;99911.99;1837232;76;20179;-58
2021/08/02 07:36:24;;;;;;;;;;;;;;;27.47;44.04;99913.17;1833789;76;20155;-57
2021/08/02 07:38:50;;;;;;;;;;;;;;;27.43;43.98;99908.70;1837731;76;20182;-58
2021/08/02 07:41:16;;;;;;;;;;;;;;;27.43;43.92;99914.30;1842505;76;21197;-58
2021/08/02 07:43:44;;;;;;;;;;;;;;;27.41;43.88;99916.69;1837930;76;20200;-58
2021/08/02 07:46:12;;;;;;;;;;;;;;;27.40;43.81;99916.47;1839042;76;20317;-58
2021/08/02 07:48:38;;;;;;;;;;;;;;;27.37;43.75;99917.25;1838968;76;20206;-57
2021/08/02 07:51:05;;;;;;;;;;;;;;;27.37;43.71;99923.61;1836709;76;20186;-58
2021/08/02 07:53:31;;;;;;;;;;;;;;;27.35;43.65;99922.41;1838926;76;21012;-58
2021/08/02 07:55:57;;;;;;;;;;;;;;;27.34;43.59;99924.98;1840438;76;20513;-58
2021/08/02 07:58:23;;;;;;;;;;;;;;;27.33;43.53;99921.38;1837304;76;20202;-57
2021/08/02 08:00:49;;;;;;;;;;;;;;;27.32;43.47;99917.00;1841162;76;22019;-58
2021/08/02 08:03:16;;;;;;;;;;;;;;;27.30;43.41;99916.57;1836890;76;20607;-57
2021/08/02 08:05:42;;;;;;;;;;;;;;;27.30;43.36;99923.55;1833249;76;21045;-58
2021/08/02 08:08:08;;;;;;;;;;;;;;;27.29;43.33;99924.73;1836363;76;20181;-58
2021/08/02 08:10:34;;;;;;;;;;;;;;;27.28;43.30;99918.34;1825039;77;20229;-58
2021/08/02 08:13:00;;;;;;;;;;;;;;;27.28;43.25;99916.95;1833104;77;20700;-57
2021/08/02 08:15:26;;;;;;;;;;;;;;;27.28;43.23;99914.77;1835694;76;20187;-58
2021/08/02 08:17:52;;;;;;;;;;;;;;;27.29;43.20;99912.17;1838677;76;23272;-58
2021/08/02 08:20:20;;;;;;;;;;;;;;;27.28;43.17;99907.17;1832154;76;20226;-58
2021/08/02 08:22:46;;;;;;;;;;;;;;;27.28;43.17;99916.17;1836595;76;20093;-58
2021/08/02 08:25:12;;;;;;;;;;;;;;;27.28;43.17;99914.16;1836131;76;22130;-58
2021/08/02 08:27:38;;;;;;;;;;;;;;;27.29;43.15;99923.34;1833281;76;20198;-56
2021/08/02 08:30:05;;;;;;;;;;;;;;;27.28;43.11;99918.16;1838013;76;21149;-57
2021/08/02 08:32:31;;;;;;;;;;;;;;;27.27;43.11;99920.14;1833077;76;20197;-58
2021/08/02 08:34:57;;;;;;;;;;;;;;;27.28;43.10;99919.73;1839139;76;20169;-59
2021/08/02 08:39:51;;;;;;;;;;;;;;;27.30;42.99;99915.17;1756914;79;20107;-54
2021/08/02 08:42:17;;;;;;;;;;;;;;;27.30;42.98;99914.37;1743274;80;21193;-54
2021/08/02 08:44:43;;;;;;;;;;;;;;;27.31;42.97;99913.99;1755321;80;20276;-53
2021/08/02 08:47:11;;;;;;;;;;;;;;;27.30;42.93;99922.16;1748415;80;20226;-51
2021/08/02 08:49:38;;;;;;;;;;;;;;;27.30;42.91;99913.78;1748791;80;20152;-53
2021/08/02 08:52:05;;;;;;;;;;;;;;;27.30;42.90;99915.17;1757338;80;20201;-54
2021/08/02 08:54:32;;;;;;;;;;;;;;;27.30;42.90;99918.56;1748718;80;21006;-57
2021/08/02 08:56:58;;;;;;;;;;;;;;;27.28;42.90;99909.19;1748957;80;20196;-56
2021/08/02 08:59:24;;;;;;;;;;;;;;;27.30;42.90;99910.18;1745487;80;20174;-56
2021/08/02 09:02:01;;;;;;;;;;;;;;;27.32;42.91;99912.81;1755110;80;20165;-56
2021/08/02 09:04:29;;;;;;;;;;;;;;;27.35;42.90;99910.64;1763413;80;20212;-56
2021/08/02 09:06:58;;;;;;;;;;;;;;;27.39;42.88;99909.27;1741384;81;21887;-56
2021/08/02 09:09:31;;;;;;;;;;;;;;;27.41;42.86;99904.92;1731207;81;20445;-57
2021/08/02 09:12:13;;;;;;;;;;;;;;;27.45;42.83;99913.33;1753756;80;20295;-56
2021/08/02 09:14:37;;;;;;;;;;;;;;;27.48;42.79;99903.61;1744364;80;20194;-57
2021/08/02 09:17:03;;;;;;;;;;;;;;;27.51;42.76;99902.83;1749179;80;20766;-57
2021/08/02 09:19:41;;;;;;;;;;;;;;;27.53;42.77;99901.86;1738248;80;21194;-56
2021/08/02 09:22:07;;;;;;;;;;;;;;;27.56;42.72;99908.06;1738144;80;20188;-56
2021/08/02 09:24:34;;;;;;;;;;;;;;;27.60;42.71;99906.69;1751299;80;20203;-56
2021/08/02 09:27:00;;;;;;;;;;;;;;;27.62;42.68;99905.73;1763607;80;20153;-56
2021/08/02 09:29:33;;;;;;;;;;;;;;;27.64;42.65;99906.12;1757956;80;20214;-57
2021/08/02 09:32:03;;;;;;;;;;;;;;;27.65;42.64;99905.75;1758719;80;21055;-56
2021/08/02 09:34:27;;;;;;;;;;;;;;;27.65;42.59;99905.75;1745674;80;20219;-56
2021/08/02 09:36:59;;;;;;;;;;;;;;;27.68;42.57;99905.56;1749585;80;20215;-57
2021/08/02 09:39:30;;;;;;;;;;;;;;;27.68;42.54;99904.16;1760479;80;20540;-56
2021/08/02 09:42:06;;;;;;;;;;;;;;;27.70;42.51;99899.00;1763767;80;20191;-57
2021/08/02 09:44:32;;;;;;;;;;;;;;;27.71;42.50;99896.39;1757908;80;21252;-57
2021/08/02 09:46:59;;;;;;;;;;;;;;;27.71;42.46;99904.19;1757566;80;20441;-57
2021/08/02 09:49:26;;;;;;;;;;;;;;;27.73;42.45;99903.00;1743420;80;20137;-56
2021/08/02 09:51:52;;;;;;;;;;;;;;;27.73;42.45;99905.20;1755054;80;20189;-57
2021/08/02 09:54:27;;;;;;;;;;;;;;;27.75;42.42;99896.44;1749761;80;20467;-56
2021/08/02 09:56:53;;;;;;;;;;;;;;;27.75;42.41;99895.05;1755600;80;21088;-56
2021/08/02 09:59:19;;;;;;;;;;;;;;;27.76;42.37;99896.03;1752761;80;20513;-56
2021/08/02 10:01:49;;;;;;;;;;;;;;;27.77;42.35;99894.05;1751520;80;20220;-56
2021/08/02 10:04:16;;;;;;;;;;;;;;;27.78;42.35;99895.66;1750590;80;20156;-56
2021/08/02 10:06:42;;;;;;;;;;;;;;;27.79;42.33;99895.28;1749312;80;20142;-57
2021/08/02 10:09:08;;;;;;;;;;;;;;;27.80;42.29;99895.47;1741920;80;21046;-56
2021/08/02 10:11:34;;;;;;;;;;;;;;;27.82;42.29;99888.09;1732049;80;20246;-56
2021/08/02 10:14:00;;;;;;;;;;;;;;;27.83;42.26;99895.30;1752913;80;20219;-56
2021/08/02 10:16:27;;;;;;;;;;;;;;;27.84;42.22;99892.72;1749060;80;20177;-56
2021/08/02 10:19:05;;;;;;;;;;;;;;;27.85;42.20;99890.91;1758719;80;20215;-56
2021/08/02 10:21:42;;;;;;;;;;;;;;;27.87;42.17;99884.36;1752531;80;20701;-57
2021/08/02 10:24:13;;;;;;;;;;;;;;;27.88;42.17;99877.55;1752002;80;20232;-56
2021/08/02 10:26:39;;;;;;;;;;;;;;;27.91;42.14;99880.98;1748592;80;20164;-56
2021/08/02 10:29:08;;;;;;;;;;;;;;;27.89;41.88;99884.75;1752331;80;20138;-56
2021/08/02 10:31:45;;;;;;;;;;;;;;;27.89;41.84;99879.16;1742996;80;20226;-56
2021/08/02 10:34:22;;;;;;;;;;;;;;;27.90;41.83;99882.17;1746055;80;21177;-57
2021/08/02 10:37:02;;;;;;;;;;;;;;;27.93;41.82;99872.99;1747616;80;20190;-57
2021/08/02 10:39:30;;;;;;;;;;;;;;;27.95;41.80;99876.81;1750647;80;20182;-56
2021/08/02 10:42:12;;;;;;;;;;;;;;;27.96;41.79;99877.83;1738033;80;20732;-56
2021/08/02 10:44:38;;;;;;;;;;;;;;;27.98;41.76;99868.44;1754393;80;20172;-56
2021/08/02 10:47:07;;;;;;;;;;;;;;;28.01;41.73;99874.64;1754502;80;21145;-56
2021/08/02 10:49:33;;;;;;;;;;;;;;;28.04;41.73;99871.67;1751454;80;20155;-57
2021/08/02 10:52:00;;;;;;;;;;;;;;;28.03;41.63;99863.08;1743162;80;20186;-56
2021/08/02 10:54:37;;;;;;;;;;;;;;;28.03;41.57;99861.67;1726247;81;20798;-57
2021/08/02 10:57:13;;;;;;;;;;;;;;;28.05;41.59;99861.48;1720722;82;20404;-57
2021/08/02 10:59:39;;;;;;;;;;;;;;;28.09;41.56;99857.33;1706719;83;22355;-57
2021/08/02 11:02:09;;;;;;;;;;;;;;;28.09;41.61;99858.13;1702632;82;20237;-57
2021/08/02 11:04:39;;;;;;;;;;;;;;;28.13;41.66;99859.58;1748433;80;20178;-57
2021/08/02 11:07:06;;;;;;;;;;;;;;;28.16;41.77;99854.59;1744033;80;20186;-57
2021/08/02 11:09:33;;;;;;;;;;;;;;;28.19;41.84;99848.80;1755191;80;20408;-57
2021/08/02 11:12:08;;;;;;;;;;;;;;;28.21;41.90;99849.22;1758908;80;21148;-57
2021/08/02 11:14:47;;;;;;;;;;;;;;;28.23;41.94;99846.81;1752558;80;20202;-59
2021/08/02 11:17:18;;;;;;;;;;;;;;;28.25;41.95;99850.04;1757787;80;20208;-57
2021/08/02 11:19:44;;;;;;;;;;;;;;;28.26;41.99;99844.06;1755000;80;20193;-57
2021/08/02 11:22:11;;;;;;;;;;;;;;;28.28;42.04;99841.66;1757791;80;20185;-57
2021/08/02 11:24:38;;;;;;;;;;;;;;;28.30;42.09;99842.08;1750453;80;21068;-58
2021/08/02 11:27:10;;;;;;;;;;;;;;;28.32;42.13;99839.67;1752035;80;20261;-58
2021/08/02 11:29:39;;;;;;;;;;;;;;;28.32;42.18;99838.28;1748033;80;20121;-57
2021/08/02 11:32:10;;;;;;;;;;;;;;;28.35;42.18;99833.87;1746677;80;20241;-57
2021/08/02 11:34:38;;;;;;;;;;;;;;;28.38;42.20;99827.52;1751446;80;20243;-58
2021/08/02 11:37:13;;;;;;;;;;;;;;;28.39;42.22;99830.52;1752358;80;21057;-58
2021/08/02 11:39:44;;;;;;;;;;;;;;;28.40;42.24;99830.11;1748182;80;20141;-58
2021/08/02 11:42:12;;;;;;;;;;;;;;;28.44;42.29;99831.52;1742484;80;20135;-57
2021/08/02 11:44:41;;;;;;;;;;;;;;;28.45;42.33;99823.34;1738521;80;20851;-57
2021/08/02 11:47:15;;;;;;;;;;;;;;;28.47;42.42;99823.16;1746637;80;20179;-57
2021/08/02 11:49:41;;;;;;;;;;;;;;;28.49;42.49;99822.16;1745750;80;21252;-58
2021/08/02 11:52:07;;;;;;;;;;;;;;;28.52;42.54;99821.95;1746457;80;20262;-57
2021/08/02 11:54:34;;;;;;;;;;;;;;;28.55;42.59;99828.18;1730971;80;20352;-57
2021/08/02 11:57:00;;;;;;;;;;;;;;;28.56;42.64;99818.56;1741279;80;20734;-57
2021/08/02 11:59:27;;;;;;;;;;;;;;;28.58;42.70;99810.59;1744845;80;20157;-57
2021/08/02 12:01:59;;;;;;;;;;;;;;;28.60;42.75;99815.98;1743354;80;21170;-58
2021/08/02 12:04:26;;;;;;;;;;;;;;;28.63;42.80;99818.60;1746023;81;20131;-57
2021/08/02 12:06:56;;;;;;;;;;;;;;;28.65;42.86;99818.99;1744294;80;20121;-57
2021/08/02 12:09:34;;;;;;;;;;;;;;;28.67;42.91;99813.81;1744363;80;20413;-57
2021/08/02 12:12:01;;;;;;;;;;;;;;;28.70;42.96;99818.64;1748111;80;20134;-57
2021/08/02 12:14:30;;;;;;;;;;;;;;;28.72;43.00;99812.66;1743085;80;22061;-57
2021/08/02 12:17:07;;;;;;;;;;;;;;;28.74;43.05;99805.45;1745812;80;20178;-57
2021/08/02 12:19:50;;;;;;;;;;;;;;;28.76;43.07;99803.67;1743790;80;20149;-57
2021/08/02 12:22:18;;;;;;;;;;;;;;;28.79;43.15;99800.06;1744513;80;20131;-57
2021/08/02 12:24:50;;;;;;;;;;;;;;;28.81;43.18;99799.89;1745797;80;20149;-57
2021/08/02 12:27:19;;;;;;;;;;;;;;;28.83;43.22;99810.08;1745598;80;21074;-57
2021/08/02 12:29:57;;;;;;;;;;;;;;;28.86;43.27;99803.67;1745770;80;20143;-57
2021/08/02 12:32:42;;;;;;;;;;;;;;;28.88;43.30;99801.88;1747251;80;20133;-57
2021/08/02 12:35:13;;;;;;;;;;;;;;;28.89;43.36;99802.89;1745619;80;21057;-57
2021/08/02 12:37:40;;;;;;;;;;;;;;;28.91;43.40;99792.08;1747040;80;20158;-58
2021/08/02 12:40:09;;;;;;;;;;;;;;;28.94;43.43;99784.90;1742389;80;21084;-58
2021/08/02 12:42:36;;;;;;;;;;;;;;;28.96;43.47;99793.09;1754541;80;20336;-57
2021/08/02 12:45:02;;;;;;;;;;;;;;;28.97;43.50;99796.70;1753212;80;20161;-57
2021/08/02 12:47:28;;;;;;;;;;;;;;;28.99;43.54;99793.69;1748172;80;20145;-58
2021/08/02 12:49:57;;;;;;;;;;;;;;;29.01;43.56;99784.30;1753970;80;20746;-57
2021/08/02 12:52:22;;;;;;;;;;;;;;;29.04;43.62;99787.69;1759541;80;21283;-57
2021/08/02 12:54:51;;;;;;;;;;;;;;;29.06;43.66;99785.91;1756106;80;20405;-57